Fort Harrison, MT (59636)

3:54 PM MDT on August 31, 2016 (GMT -0600)
Helena 2-North | | Change Station

Elev 3825 ft 46.62 °N, 112.04 °W | Updated 3 minutes ago

Clear
Clear
89.1 °F
Feels Like 85 °F
N
10.0
Wind Variable Wind from West
Gusts 16.0 mph

Today
High -- | Low -- °F
--% Chance of Precip.
Yesterday
High -- | Low -- °F
Precip. -- in
Pressure 29.87 in
Visibility 10.0 miles
Clouds Clear
Heat Index 85 °F
Dew Point 42 °F
Humidity 19%
Rainfall 0.00 in
Snow Depth Not available.
6:47 AM 8:08 PM
Waning Crescent, 0% visible
METAR KHLN 312053Z 35005KT 10SM CLR 32/07 A2994 RMK AO2 SLP115 T03220072 56015
Pressure 29.87 in
Visibility 10.0 miles
Clouds Clear
Heat Index 85 °F
Dew Point 42 °F
Humidity 19%
Rainfall 0.00 in
Snow Depth Not available.
6:47 AM 8:08 PM
Waning Crescent, 0% visible
METAR KHLN 312053Z 35005KT 10SM CLR 32/07 A2994 RMK AO2 SLP115 T03220072 56015

10-Day Weather Forecast

Almanac

Astronomy

Aug. 31, 2016 Rise Set
Actual Time
Civil Twilight
Nautical Twilight
Astronomical Twilight
Moon
Length of Visible Light
Length of Day
Tomorrow will be .
, % of the Moon is Illuminated

Today's Extremes

State Highs State Lows

Community

WunderPhotos

Upload Photos

1,936,189 photos uploaded!

WunderBlog® & News

Nearby

Air Quality

  Air Quality AQ Index Pollutant
Not available.

Snow Depth

Station Depth Elevation

Earthquake Activity

City Distance Mag. Time & Date
Minimum magnitude displayed is 2.5.

Coastal Water Temperatures

Place Temperature

Stations

Nearby Weather Stations

Station Location Temp. Windchill Dew Point Humidity Wind Precip. Elev Updated Type
                   

Watches & Warnings

There are currently no watches in effect.